Latest Weather Observations for Swan Island

IDT60801

Issued at 4:31 am EST Monday 24 July 2017 (issued every 30 minutes, with the page automatically refreshed every 10 minutes)

About weather observations | Map of weather stations | Latest weather observations for TAS | Other Formats
Station Details ID: 092123 Name: SWAN ISLAND Lat: -40.73 Lon: 148.12 Height: 15.0 m
Data from the previous 72 hours. | See also: Recent months at Swan Island
Date/Time
EST
Temp
°C
App
Temp
°C
Dew
Point
°C
Rel
Hum
%
Delta-T
°C
Wind Press
QNH
hPa
Press
MSL
hPa
Rain since
9am
mm
Dir  Spd
km/h
Gust
km/h
Spd
kts
Gust
kts
24/04:30am 7.1 1.5 3.2 76 1.6 WSW 22 37 12 20 1010.7 1010.8 0.0
24/04:00am 7.2 2.1 3.1 75 1.7 WSW 19 35 10 19 1010.7 1010.8 0.0
24/03:30am 7.2 2.5 2.9 74 1.8 WSW 17 24 9 13 1011.0 1011.0 0.0
24/03:00am 7.7 2.7 3.4 74 1.8 WSW 19 30 10 16 1010.9 1010.9 0.0
24/02:30am 8.0 2.8 3.3 72 2.0 WSW 20 32 11 17 1010.9 1010.9 0.0
24/02:00am 8.2 3.1 3.9 74 1.9 WSW 20 32 11 17 1010.6 1010.7 0.0
24/01:30am 8.4 3.3 4.0 74 1.9 WSW 20 37 11 20 1010.4 1010.5 0.0
24/01:00am 8.6 3.6 4.4 75 1.8 WSW 20 32 11 17 1010.2 1010.3 0.0
24/12:30am 8.8 3.4 4.6 75 1.9 WSW 22 33 12 18 1010.1 1010.2 0.0
24/12:00am 9.1 4.5 5.7 79 1.5 WSW 19 33 10 18 1010.0 1010.1 0.0
 
Date/Time
EST
Temp
°C
App
Temp
°C
Dew
Point
°C
Rel
Hum
%
Delta-T
°C
Wind Press
QNH
hPa
Press
MSL
hPa
Rain since
9am
mm
Dir  Spd
km/h
Gust
km/h
Spd
kts
Gust
kts
23/11:30pm 9.5 4.4 5.9 78 1.7 WSW 22 32 12 17 1009.7 1009.8 0.0
23/11:00pm 9.8 4.7 6.0 77 1.8 WSW 22 37 12 20 1009.4 1009.5 0.0
23/10:30pm 9.7 4.5 5.3 74 2.0 WSW 22 37 12 20 1009.2 1009.3 0.0
23/10:00pm 10.2 5.6 6.4 77 1.8 WSW 20 32 11 17 1008.7 1008.8 0.0
23/09:30pm 10.5 7.0 7.2 80 1.6 WSW 15 24 8 13 1008.2 1008.3 0.0
23/09:00pm 11.2 5.8 8.1 81 1.5 W 26 35 14 19 1007.7 1007.8 0.0
23/08:30pm 11.1 5.8 8.5 84 1.3 W 26 37 14 20 1007.2 1007.3 0.0
23/08:00pm 11.2 7.2 8.9 86 1.1 W 20 33 11 18 1006.6 1006.7 0.0
23/07:30pm 10.9 8.1 8.7 86 1.1 WSW 13 20 7 11 1006.3 1006.4 0.0
23/07:00pm 11.3 7.5 9.0 86 1.1 WSW 19 24 10 13 1005.8 1005.9 0.0
23/06:30pm 11.7 7.8 9.4 86 1.2 WSW 20 32 11 17 1005.2 1005.3 0.0
23/06:00pm 11.8 6.8 9.4 85 1.2 W 26 39 14 21 1004.6 1004.7 0.0
23/05:30pm 12.1 5.9 9.3 83 1.4 W 32 43 17 23 1004.0 1004.0 0.0
23/05:00pm 12.1 6.2 8.9 81 1.6 W 30 46 16 25 1003.3 1003.3 0.0
23/04:41pm 12.0 6.0 8.7 80 1.6 W 30 50 16 27 1002.9 1002.9 0.0
23/04:30pm 12.3 5.7 8.6 78 1.8 W 33 48 18 26 1002.9 1002.9 0.0
23/04:09pm 12.3 5.7 8.6 78 1.8 W 33 52 18 28 1002.6 1002.6 0.0
23/04:00pm 12.3 5.9 8.4 77 1.9 W 32 48 17 26 1002.2 1002.2 0.0
23/03:51pm 12.3 4.9 8.4 77 1.9 W 37 57 20 31 1001.9 1001.9 0.0
23/03:30pm 12.6 4.1 8.7 77 1.9 WNW 43 61 23 33 1001.1 1001.1 0.0
23/03:00pm 12.4 4.8 8.9 79 1.8 WNW 39 54 21 29 1001.5 1001.5 0.0
23/02:31pm 13.3 4.9 8.8 74 2.3 WNW 43 61 23 33 1001.6 1001.6 0.0
23/02:30pm 13.2 4.7 8.7 74 2.3 WNW 43 59 23 32 1001.6 1001.6 0.0
23/02:00pm 13.4 4.8 8.7 73 2.4 WNW 44 65 24 35 1001.6 1001.6 0.0
23/01:30pm 12.6 6.2 9.2 80 1.7 WNW 33 52 18 28 1002.1 1002.1 0.0
23/01:07pm 13.4 4.7 7.8 69 2.8 WNW 43 63 23 34 1002.1 1002.1 0.0
23/01:00pm 13.8 5.3 8.6 71 2.6 WNW 43 59 23 32 1002.2 1002.2 0.0
23/12:40pm 13.6 5.6 8.9 73 2.4 WNW 41 59 22 32 1002.3 1002.3 0.0
23/12:30pm 13.3 5.2 8.8 74 2.3 WNW 41 56 22 30 1002.5 1002.5 0.0
23/12:00pm 12.4 4.9 8.1 75 2.1 WNW 37 61 20 33 1002.9 1002.9 0.0
23/11:31am 13.7 7.3 8.5 71 2.6 W 32 50 17 27 1003.3 1003.3 0.0
23/11:30am 13.7 7.1 8.5 71 2.6 W 33 50 18 27 1003.3 1003.3 0.0
23/11:17am 13.7 6.7 8.5 71 2.6 WNW 35 59 19 32 1003.4 1003.4 0.0
23/11:00am 13.6 6.7 8.7 72 2.5 WNW 35 50 19 27 1003.5 1003.5 0.0
23/10:30am 13.5 7.7 9.4 76 2.1 W 30 50 16 27 1003.7 1003.7 0.0
23/10:13am 12.7 5.9 9.2 79 1.8 W 35 57 19 31 1003.8 1003.8 0.0
23/10:00am 12.2 5.4 9.4 83 1.4 WNW 35 52 19 28 1003.7 1003.7 0.0
23/09:30am 11.4 3.0 8.8 84 1.3 WNW 43 57 23 31 1003.6 1003.6 0.0
23/09:00am 11.9 4.4 9.5 85 1.2 WNW 39 59 21 32 1003.8 1003.8 0.2
23/08:30am 12.4 4.4 8.9 79 1.8 WNW 41 63 22 34 1003.4 1003.4 0.0
23/08:09am 12.5 4.1 8.8 78 1.8 NW 43 63 23 34 1003.5 1003.5 0.0
23/08:00am 12.6 4.0 8.9 78 1.9 NW 44 61 24 33 1003.6 1003.6 0.0
23/07:45am 12.3 2.1 8.6 78 1.8 NW 52 70 28 38 1003.6 1003.6 0.0
23/07:30am 12.4 1.4 8.3 76 2.0 NW 56 69 30 37 1003.5 1003.5 0.0
23/07:06am 12.3 1.5 7.6 73 2.3 WNW 54 74 29 40 1003.1 1003.1 0.0
23/07:00am 12.6 1.5 8.1 74 2.2 WNW 56 74 30 40 1003.2 1003.2 0.0
23/06:30am 12.9 4.2 8.6 75 2.1 NW 44 65 24 35 1003.4 1003.4 0.0
23/06:00am 12.8 4.6 8.3 74 2.2 NW 41 59 22 32 1003.7 1003.7 0.0
23/05:30am 12.4 3.6 7.9 74 2.2 WNW 44 69 24 37 1003.7 1003.7 0.0
23/05:00am 13.1 4.5 8.2 72 2.4 NW 43 65 23 35 1004.2 1004.3 0.0
23/04:30am 13.1 3.2 8.2 72 2.4 WNW 50 69 27 37 1004.3 1004.4 0.0
23/04:02am 13.0 3.1 8.1 72 2.4 WNW 50 70 27 38 1004.5 1004.6 0.0
23/04:00am 13.0 2.7 8.1 72 2.4 WNW 52 70 28 38 1004.6 1004.7 0.0
23/03:47am 13.1 2.8 8.0 71 2.5 WNW 52 70 28 38 1004.5 1004.6 0.0
23/03:30am 13.1 1.8 8.0 71 2.5 WNW 57 72 31 39 1004.4 1004.5 0.0
23/03:00am 12.8 2.8 7.9 72 2.4 NW 50 72 27 39 1004.3 1004.4 0.0
23/02:30am 12.8 2.1 8.1 73 2.3 NW 54 74 29 40 1004.3 1004.4 0.0
23/02:00am 12.7 2.4 8.0 73 2.3 NW 52 74 28 40 1004.8 1004.9 0.0
23/01:30am 12.5 2.5 8.0 74 2.2 NW 50 72 27 39 1005.2 1005.3 0.0
23/01:04am 12.6 3.4 8.1 74 2.2 NW 46 67 25 36 1005.7 1005.8 0.0
23/01:00am 12.6 3.0 8.1 74 2.2 NW 48 67 26 36 1005.8 1005.9 0.0
23/12:30am 12.7 3.2 8.4 75 2.1 WNW 48 63 26 34 1006.4 1006.5 0.0
23/12:24am 12.7 2.8 8.4 75 2.1 WNW 50 70 27 38 1006.5 1006.6 0.0
23/12:00am 12.7 2.5 8.6 76 2.1 WNW 52 69 28 37 1006.8 1006.9 0.0
 
Date/Time
EST
Temp
°C
App
Temp
°C
Dew
Point
°C
Rel
Hum
%
Delta-T
°C
Wind Press
QNH
hPa
Press
MSL
hPa
Rain since
9am
mm
Dir  Spd
km/h
Gust
km/h
Spd
kts
Gust
kts
22/11:54pm 12.4 2.9 8.3 76 2.0 WNW 48 69 26 37 1006.8 1006.9 0.0
22/11:30pm 12.4 4.3 8.7 78 1.8 WNW 41 54 22 29 1007.3 1007.4 0.0
22/11:19pm 12.5 4.4 8.6 77 1.9 NW 41 61 22 33 1007.4 1007.5 0.0
22/11:00pm 12.6 5.8 9.1 79 1.8 NW 35 48 19 26 1008.0 1008.1 0.0
22/10:30pm 12.6 5.3 8.9 78 1.9 NW 37 48 20 26 1008.5 1008.6 0.0
22/10:00pm 12.5 5.3 9.0 79 1.8 NW 37 48 20 26 1008.9 1009.0 0.0
22/09:30pm 12.6 5.3 8.9 78 1.9 NW 37 46 20 25 1009.3 1009.4 0.0
22/09:00pm 12.4 5.1 8.7 78 1.8 NW 37 46 20 25 1009.5 1009.6 0.0
22/08:30pm 12.4 4.7 8.5 77 1.9 NW 39 50 21 27 1009.6 1009.7 0.0
22/08:00pm 12.5 4.7 8.4 76 2.0 NW 39 50 21 27 1010.0 1010.1 0.0
22/07:30pm 12.5 5.9 8.4 76 2.0 NW 33 48 18 26 1010.2 1010.3 0.0
22/07:00pm 12.5 5.5 8.6 77 1.9 NW 35 50 19 27 1010.3 1010.4 0.0
22/06:30pm 12.2 4.4 8.3 77 1.9 NW 39 46 21 25 1010.3 1010.4 0.0
22/06:00pm 12.1 4.7 8.4 78 1.8 NW 37 48 20 26 1010.3 1010.4 0.0
22/05:30pm 11.9 4.5 8.2 78 1.8 NW 37 46 20 25 1010.3 1010.4 0.0
22/05:00pm 11.9 4.8 8.2 78 1.8 NW 35 46 19 25 1010.6 1010.7 0.0
22/04:30pm 11.9 3.7 8.2 78 1.8 NW 41 50 22 27 1010.7 1010.8 0.0
22/04:00pm 11.9 5.2 8.0 77 1.9 NW 33 50 18 27 1010.9 1010.9 0.0
22/03:30pm 11.8 5.1 8.1 78 1.8 NW 33 44 18 24 1011.3 1011.3 0.0
22/03:00pm 11.7 5.0 8.0 78 1.8 NW 33 44 18 24 1011.6 1011.6 0.0
22/02:30pm 12.0 5.8 7.9 76 2.0 NW 30 43 16 23 1011.9 1011.9 0.0
22/02:00pm 12.4 4.9 8.1 75 2.1 NW 37 48 20 26 1012.4 1012.4 0.0
22/01:30pm 12.5 5.5 8.6 77 1.9 NW 35 44 19 24 1012.6 1012.6 0.0
22/01:00pm 12.3 5.2 8.2 76 2.0 NW 35 43 19 23 1013.2 1013.2 0.0
22/12:30pm 12.6 5.6 8.3 75 2.1 NW 35 43 19 23 1014.2 1014.2 0.0
22/12:00pm 12.1 4.6 7.8 75 2.1 NW 37 46 20 25 1015.0 1015.0 0.0
22/11:30am 11.9 5.1 7.6 75 2.1 NW 33 44 18 24 1015.5 1015.5 0.0
22/11:00am 12.7 6.9 7.8 72 2.4 NW 28 43 15 23 1015.9 1015.9 0.0
22/10:30am 11.8 4.7 6.5 70 2.5 WNW 33 43 18 23 1016.3 1016.3 0.0
22/10:00am 11.5 4.4 6.2 70 2.5 WNW 33 44 18 24 1016.3 1016.3 0.0
22/09:30am 11.8 4.4 6.9 72 2.3 NW 35 46 19 25 1016.5 1016.5 0.0
22/09:00am 11.6 4.2 6.9 73 2.2 NW 35 44 19 24 1016.6 1016.6 0.0
22/08:30am 11.5 4.2 7.2 75 2.1 NW 35 46 19 25 1016.7 1016.7 0.0
22/08:00am 11.3 4.3 7.0 75 2.0 NW 33 44 18 24 1016.8 1016.8 0.0
22/07:30am 11.5 4.7 7.6 77 1.9 NW 33 44 18 24 1016.8 1016.8 0.0
22/07:00am 11.4 4.8 7.7 78 1.8 WNW 32 41 17 22 1016.9 1016.9 0.0
22/06:30am 11.3 5.4 7.4 77 1.9 WNW 28 37 15 20 1016.8 1016.8 0.0
22/06:00am 11.2 5.2 6.9 75 2.0 WNW 28 37 15 20 1016.8 1016.8 0.0
22/05:30am 11.1 5.5 7.0 76 2.0 WNW 26 35 14 19 1016.7 1016.7 0.0
22/05:00am 11.1 5.0 6.6 74 2.1 WNW 28 35 15 19 1016.8 1016.8 0.0
22/04:30am 11.2 4.8 6.9 75 2.0 NW 30 41 16 22 1017.2 1017.2 0.0
22/04:00am 11.2 5.9 6.9 75 2.0 NW 24 33 13 18 1017.6 1017.6 0.0
22/03:30am 11.1 5.0 6.5 73 2.2 WNW 28 37 15 20 1017.9 1017.9 0.0
22/03:00am 11.0 4.9 6.6 74 2.1 WNW 28 35 15 19 1018.3 1018.3 0.0
22/02:30am 11.0 4.9 6.6 74 2.1 WNW 28 35 15 19 1018.8 1018.8 0.0
22/02:00am 11.0 4.4 6.2 72 2.2 WNW 30 39 16 21 1018.8 1018.8 0.0
22/01:30am 10.7 4.8 5.7 71 2.3 WNW 26 35 14 19 1019.0 1019.0 0.0
22/01:00am 11.1 5.6 5.8 70 2.4 WNW 24 32 13 17 1019.4 1019.4 0.0
22/12:30am 11.2 5.7 6.1 71 2.4 NW 24 32 13 17 1019.8 1019.8 0.0
22/12:00am 10.9 5.5 6.3 73 2.1 NW 24 32 13 17 1020.2 1020.2 0.0
 
Date/Time
EST
Temp
°C
App
Temp
°C
Dew
Point
°C
Rel
Hum
%
Delta-T
°C
Wind Press
QNH
hPa
Press
MSL
hPa
Rain since
9am
mm
Dir  Spd
km/h
Gust
km/h
Spd
kts
Gust
kts
21/11:30pm 10.9 5.9 6.3 73 2.2 WNW 22 32 12 17 1020.5 1020.5 0.0
21/11:00pm 11.1 6.5 6.6 74 2.1 NW 20 30 11 16 1020.6 1020.6 0.0
21/10:30pm 11.1 6.5 6.6 74 2.1 NW 20 28 11 15 1020.6 1020.6 0.0
21/10:00pm 10.7 6.3 6.6 76 1.9 WNW 19 24 10 13 1020.8 1020.8 0.0
21/09:30pm 10.4 6.8 6.9 79 1.7 WNW 15 20 8 11 1020.9 1020.9 0.0
21/09:00pm 10.4 7.3 7.1 80 1.6 WNW 13 17 7 9 1020.9 1020.9 0.0
21/08:30pm 9.9 7.4 6.4 79 1.6 WNW 9 15 5 8 1020.9 1020.9 0.0
21/08:00pm 9.8 7.2 6.2 78 1.7 WNW 9 15 5 8 1020.9 1020.9 0.0
21/07:30pm 10.0 7.1 6.3 78 1.7 WNW 11 13 6 7 1021.1 1021.1 0.0
21/07:00pm 10.0 6.7 6.2 77 1.8 W 13 19 7 10 1021.3 1021.3 0.0
21/06:30pm 10.0 6.3 6.2 77 1.8 W 15 20 8 11 1021.3 1021.3 0.0
21/06:00pm 10.0 5.9 6.0 76 1.8 W 17 26 9 14 1021.4 1021.4 0.0
21/05:30pm 10.1 5.5 5.7 74 2.0 W 19 24 10 13 1021.2 1021.2 0.0
21/05:00pm 10.0 5.7 5.2 72 2.2 W 17 24 9 13 1021.0 1021.0 0.0
21/04:30pm 10.5 6.2 5.3 70 2.4 W 17 22 9 12 1020.9 1020.9 0.0
21/04:00pm 11.0 6.4 5.5 69 2.5 W 19 24 10 13 1020.8 1020.8 0.0
21/03:30pm 11.6 7.2 5.0 64 3.0 W 17 24 9 13 1020.9 1020.9 0.0
21/03:00pm 12.0 7.9 4.5 60 3.4 W 15 24 8 13 1021.0 1021.0 0.0
21/02:30pm 12.3 7.9 5.0 61 3.4 W 17 24 9 13 1021.1 1021.1 0.0
21/02:00pm 13.1 10.1 6.0 62 3.3 WNW 11 15 6 8 1021.2 1021.2 0.0
21/01:30pm 12.2 8.2 4.9 61 3.3 W 15 19 8 10 1021.4 1021.4 0.0
21/01:00pm 12.1 8.2 5.3 63 3.1 W 15 20 8 11 1021.6 1021.6 0.0
21/12:30pm 12.1 8.2 5.3 63 3.1 W 15 20 8 11 1021.9 1021.9 0.0
21/12:00pm 12.3 8.2 4.3 58 3.6 W 15 19 8 10 1022.3 1022.3 0.0
21/11:30am 11.9 8.0 3.4 56 3.8 W 13 17 7 9 1022.8 1022.8 0.0
21/11:00am 11.8 8.7 3.8 58 3.5 SW 9 13 5 7 1023.0 1023.0 0.0
21/10:30am 11.2 8.1 3.7 60 3.3 SW 9 13 5 7 1023.2 1023.2 0.0
21/10:00am 10.3 7.2 3.8 64 2.8 SW 9 13 5 7 1023.0 1023.0 0.0
21/09:30am 10.4 7.6 5.2 70 2.4 WSW 9 13 5 7 1022.8 1022.8 0.0
21/09:00am 9.2 6.7 4.6 73 2.0 SW 7 9 4 5 1022.6 1022.6 0.0
21/08:30am 8.2 5.2 4.0 75 1.8 SW 9 11 5 6 1022.1 1022.1 0.0
21/08:00am 6.8 3.6 2.9 76 1.6 SW 9 13 5 7 1022.0 1022.0 0.0
21/07:30am 6.0 2.3 2.5 78 1.4 WSW 11 13 6 7 1021.7 1021.7 0.0
21/07:00am 6.5 2.8 2.6 76 1.6 SW 11 13 6 7 1021.6 1021.6 0.0
21/06:30am 6.4 3.1 2.5 76 1.6 WSW 9 13 5 7 1021.5 1021.5 0.0
21/06:00am 6.2 2.8 2.1 75 1.7 WSW 9 11 5 6 1021.2 1021.2 0.0
21/05:30am 6.5 3.1 2.0 73 1.8 WSW 9 13 5 7 1020.9 1020.9 0.0
21/05:00am 7.8 4.3 3.5 74 1.8 SSW 11 17 6 9 1020.8 1020.8 0.0

Other Formats:

Comma delimited format used in spreadsheet applications
http://www.bom.gov.au/fwo/IDT60801/IDT60801.95985.axf

JavaScript Object Notation format (JSON) in row-major order
http://www.bom.gov.au/fwo/IDT60801/IDT60801.95985.json